createdAt,value
2017-11-18T00:02:24.398Z,75.43
2017-11-18T00:04:53.281Z,90.70
2017-11-18T00:07:22.169Z,78.63
2017-11-18T00:09:51.031Z,80.87
2017-11-18T00:12:19.926Z,83.80
2017-11-18T00:14:48.786Z,74.30
2017-11-18T00:17:17.868Z,83.67
2017-11-18T00:19:46.733Z,84.03
2017-11-18T00:22:15.594Z,74.30
2017-11-18T00:24:44.467Z,82.70
2017-11-18T00:27:13.353Z,85.00
2017-11-18T00:29:42.228Z,78.60
2017-11-18T00:32:11.087Z,74.07
2017-11-18T00:34:39.975Z,79.83
2017-11-18T00:37:08.829Z,78.87
2017-11-18T00:39:37.716Z,82.33
2017-11-18T00:42:06.567Z,75.80
2017-11-18T00:44:35.456Z,82.77
2017-11-18T00:47:04.323Z,87.63
2017-11-18T00:49:33.190Z,69.03
2017-11-18T00:52:02.049Z,67.63
2017-11-18T00:54:30.938Z,87.07
2017-11-18T00:56:59.803Z,71.67
2017-11-18T00:59:28.708Z,70.30
2017-11-18T01:01:57.572Z,67.07
2017-11-18T01:04:26.430Z,82.77
2017-11-18T01:06:55.322Z,82.93
2017-11-18T01:09:25.056Z,96.80
2017-11-18T01:11:53.940Z,81.60
2017-11-18T01:14:22.802Z,83.77
2017-11-18T01:16:51.675Z,92.03
2017-11-18T01:19:20.529Z,84.53
2017-11-18T01:21:49.394Z,83.57
2017-11-18T01:24:18.256Z,74.97
2017-11-18T01:26:47.109Z,81.67
2017-11-18T01:29:15.997Z,88.83
2017-11-18T01:31:44.857Z,87.67
2017-11-18T01:34:13.740Z,90.10
2017-11-18T01:36:42.596Z,81.93
2017-11-18T01:39:11.496Z,91.87
2017-11-18T01:41:40.363Z,84.20
2017-11-18T01:44:09.230Z,93.83
2017-11-18T01:46:38.138Z,87.20
2017-11-18T01:49:07.000Z,88.03
2017-11-18T01:51:35.933Z,81.57
2017-11-18T01:54:04.793Z,91.43
2017-11-18T01:56:33.679Z,96.17
2017-11-18T01:59:02.528Z,89.07
2017-11-18T02:01:31.406Z,89.93
2017-11-18T02:04:00.272Z,96.20
2017-11-18T02:06:29.124Z,86.10
2017-11-18T02:08:58.008Z,92.87
2017-11-18T02:11:26.887Z,81.20
2017-11-18T02:13:55.760Z,84.03
2017-11-18T02:16:24.618Z,91.47
2017-11-18T02:18:53.508Z,81.13
2017-11-18T02:21:22.359Z,73.13
2017-11-18T02:23:51.226Z,79.93
2017-11-18T02:26:20.085Z,76.40
2017-11-18T02:28:48.969Z,77.87
2017-11-18T02:31:17.844Z,86.23
2017-11-18T02:33:46.711Z,84.27
2017-11-18T02:36:15.587Z,79.50
2017-11-18T02:38:44.476Z,85.67
2017-11-18T02:41:13.328Z,83.93
2017-11-18T02:43:42.194Z,80.63
2017-11-18T02:46:11.079Z,84.70
2017-11-18T02:48:39.943Z,76.57
2017-11-18T02:51:08.813Z,81.17
2017-11-18T02:53:37.720Z,76.07
2017-11-18T02:56:06.633Z,77.03
2017-11-18T02:58:35.483Z,75.40
2017-11-18T03:01:04.360Z,79.83
2017-11-18T03:03:33.248Z,80.13
2017-11-18T03:06:02.119Z,81.00
2017-11-18T03:08:30.987Z,81.27
2017-11-18T03:10:59.852Z,80.77
2017-11-18T03:13:28.741Z,79.50
2017-11-18T03:15:57.614Z,76.80
2017-11-18T03:18:26.482Z,74.40
2017-11-18T03:20:55.380Z,72.40
2017-11-18T03:23:24.235Z,78.30
2017-11-18T03:25:53.131Z,82.93
2017-11-18T03:28:21.983Z,68.50
2017-11-18T03:30:50.977Z,75.23
2017-11-18T03:33:19.847Z,67.30
2017-11-18T03:35:48.705Z,77.57
2017-11-18T03:38:17.989Z,76.87
2017-11-18T03:40:46.852Z,75.00
2017-11-18T03:43:15.748Z,77.10
2017-11-18T03:45:44.607Z,66.13
2017-11-18T03:48:13.572Z,71.53
2017-11-18T03:50:42.442Z,67.10
2017-11-18T03:53:11.299Z,75.23
2017-11-18T03:55:40.179Z,80.67
2017-11-18T03:58:09.044Z,68.60
2017-11-18T04:00:37.921Z,70.03
2017-11-18T04:03:06.774Z,80.20
2017-11-18T04:05:35.639Z,78.47
2017-11-18T04:08:04.506Z,78.73
2017-11-18T04:10:33.382Z,76.53
2017-11-18T04:13:02.251Z,77.23
2017-11-18T04:15:31.111Z,76.20
2017-11-18T04:18:00.025Z,74.40
2017-11-18T04:20:28.866Z,70.57
2017-11-18T04:22:57.788Z,88.07
2017-11-18T04:25:26.645Z,80.10
2017-11-18T04:27:55.513Z,86.60
2017-11-18T04:30:24.407Z,72.70
2017-11-18T04:32:53.265Z,77.57
2017-11-18T04:35:22.128Z,66.30
2017-11-18T04:37:50.989Z,89.77
2017-11-18T04:40:19.891Z,89.00
2017-11-18T04:42:48.756Z,88.13
2017-11-18T04:45:17.624Z,74.33
2017-11-18T04:47:46.501Z,84.67
2017-11-18T04:50:15.389Z,82.77
2017-11-18T04:52:44.352Z,84.23
2017-11-18T04:55:13.393Z,85.50
2017-11-18T04:57:42.255Z,97.10
2017-11-18T05:00:11.108Z,78.73
2017-11-18T05:02:39.987Z,77.07
2017-11-18T05:05:08.852Z,74.47
2017-11-18T05:07:37.791Z,77.53
2017-11-18T05:10:06.667Z,81.73
2017-11-18T05:12:35.536Z,73.43
2017-11-18T05:15:04.451Z,75.23
2017-11-18T05:17:33.378Z,72.73
2017-11-18T05:20:02.250Z,71.60
2017-11-18T05:22:31.103Z,84.17
2017-11-18T05:24:59.975Z,77.63
2017-11-18T05:27:28.855Z,69.10
2017-11-18T05:29:57.735Z,73.60
2017-11-18T05:32:26.591Z,77.27
2017-11-18T05:34:55.474Z,74.33
2017-11-18T05:37:24.384Z,78.17
2017-11-18T05:39:53.271Z,75.67
2017-11-18T05:42:22.155Z,76.37
2017-11-18T05:44:51.033Z,82.67
2017-11-18T05:47:19.890Z,77.50
2017-11-18T05:49:48.792Z,98.17
2017-11-18T05:52:17.643Z,85.80
2017-11-18T05:54:46.619Z,80.50
2017-11-18T05:57:15.502Z,91.73
2017-11-18T05:59:44.391Z,87.60
2017-11-18T06:02:13.259Z,82.37
2017-11-18T06:04:42.111Z,80.63
2017-11-18T06:07:10.996Z,81.03
2017-11-18T06:09:39.858Z,80.73
2017-11-18T06:12:08.760Z,83.80
2017-11-18T06:14:37.631Z,80.20
2017-11-18T06:17:06.510Z,87.33
2017-11-18T06:19:35.398Z,85.37
2017-11-18T06:22:04.316Z,100.40
2017-11-18T06:24:33.218Z,94.20
2017-11-18T06:27:02.079Z,87.83
2017-11-18T06:29:30.963Z,90.83
2017-11-18T06:31:59.824Z,101.33
2017-11-18T06:34:28.764Z,87.23
2017-11-18T06:36:57.661Z,97.37
2017-11-18T06:39:26.539Z,114.77
2017-11-18T06:41:55.408Z,104.10
2017-11-18T06:44:24.287Z,119.00
2017-11-18T06:46:53.156Z,113.47
2017-11-18T06:49:22.034Z,119.43
2017-11-18T06:51:50.939Z,105.27
2017-11-18T06:54:19.804Z,112.27
2017-11-18T06:56:48.700Z,103.53
2017-11-18T06:59:17.583Z,120.30
2017-11-18T07:01:46.447Z,112.60
2017-11-18T07:04:15.318Z,126.33
2017-11-18T07:06:44.191Z,125.93
2017-11-18T07:09:13.077Z,125.23
2017-11-18T07:11:41.971Z,124.57
2017-11-18T07:14:10.861Z,132.77
2017-11-18T07:16:39.748Z,127.00
2017-11-18T07:19:08.638Z,129.70
2017-11-18T07:21:37.503Z,107.93
2017-11-18T07:24:06.384Z,114.30
2017-11-18T07:26:35.369Z,144.23
2017-11-18T07:29:04.250Z,125.77
2017-11-18T07:31:33.140Z,123.80
2017-11-18T07:34:02.064Z,126.43
2017-11-18T07:36:30.986Z,121.47
2017-11-18T07:38:59.886Z,134.27
2017-11-18T07:41:28.788Z,110.17
2017-11-18T07:43:57.678Z,113.17
2017-11-18T07:46:26.738Z,116.07
2017-11-18T07:48:55.650Z,99.20
2017-11-18T07:51:24.868Z,99.03
2017-11-18T07:53:53.765Z,93.43
2017-11-18T07:56:22.713Z,99.23
2017-11-18T07:58:51.604Z,82.47
2017-11-18T08:01:20.609Z,78.10
2017-11-18T08:03:49.476Z,74.73
2017-11-18T08:06:18.505Z,74.07
2017-11-18T08:08:47.388Z,73.20
2017-11-18T08:11:16.485Z,66.87
2017-11-18T08:13:45.363Z,68.70
2017-11-18T08:16:14.244Z,63.03
2017-11-18T08:18:43.124Z,67.83
2017-11-18T08:21:12.018Z,58.73
2017-11-18T08:23:40.904Z,59.40
2017-11-18T08:26:09.760Z,59.33
2017-11-18T08:28:38.784Z,59.57
2017-11-18T08:31:07.754Z,48.97
2017-11-18T08:33:36.610Z,55.20
2017-11-18T08:36:11.455Z,45.17
2017-11-18T08:38:40.312Z,47.37
2017-11-18T08:41:09.188Z,41.87
2017-11-18T08:43:38.048Z,40.60
2017-11-18T08:46:06.931Z,38.27
2017-11-18T08:48:35.794Z,37.30
2017-11-18T08:51:04.717Z,41.40
2017-11-18T08:53:33.588Z,32.93
2017-11-18T08:56:02.458Z,29.90
2017-11-18T08:58:31.357Z,36.53
2017-11-18T09:01:00.227Z,32.87
2017-11-18T09:03:29.105Z,35.87
2017-11-18T09:05:57.974Z,27.70
2017-11-18T09:08:26.864Z,29.90
2017-11-18T09:10:55.722Z,34.60
2017-11-18T09:13:24.613Z,32.83
2017-11-18T09:15:53.523Z,39.47
2017-11-18T09:18:22.428Z,28.57
2017-11-18T09:20:51.316Z,31.47
2017-11-18T09:23:20.167Z,31.90
2017-11-18T09:25:49.040Z,30.07
2017-11-18T09:28:17.904Z,28.30
2017-11-18T09:30:46.783Z,26.37
2017-11-18T09:33:15.665Z,27.10
2017-11-18T09:35:44.541Z,29.30
2017-11-18T09:38:13.410Z,29.10
2017-11-18T09:40:42.283Z,27.23
2017-11-18T09:43:11.163Z,31.80
2017-11-18T09:45:40.093Z,33.40
2017-11-18T09:48:08.968Z,42.90
2017-11-18T09:50:37.883Z,29.03
2017-11-18T09:53:06.744Z,36.63
2017-11-18T09:55:35.639Z,32.50
2017-11-18T09:58:04.511Z,31.80
2017-11-18T10:00:33.388Z,38.50
2017-11-18T10:03:02.272Z,36.27
2017-11-18T10:05:31.163Z,27.33
2017-11-18T10:08:00.023Z,28.57
2017-11-18T10:10:28.906Z,29.10
2017-11-18T10:12:57.783Z,26.37
2017-11-18T10:15:26.729Z,31.20
2017-11-18T10:17:55.591Z,30.30
2017-11-18T10:20:24.504Z,30.90
2017-11-18T10:22:53.395Z,44.93
2017-11-18T10:25:22.260Z,27.07
2017-11-18T10:27:51.998Z,27.27
2017-11-18T10:30:20.864Z,30.93
2017-11-18T10:32:49.753Z,29.27
2017-11-18T10:35:18.839Z,29.77
2017-11-18T10:37:47.724Z,29.30
2017-11-18T10:40:16.605Z,33.90
2017-11-18T10:42:45.462Z,26.60
2017-11-18T10:45:14.415Z,28.20
2017-11-18T10:47:43.305Z,23.03
2017-11-18T10:50:12.211Z,34.40
2017-11-18T10:52:41.110Z,29.20
2017-11-18T10:55:09.993Z,24.77
2017-11-18T10:57:38.879Z,22.43
2017-11-18T11:00:07.748Z,25.03
2017-11-18T11:02:36.766Z,29.07
2017-11-18T11:05:05.673Z,24.23
2017-11-18T11:07:34.665Z,25.40
2017-11-18T11:10:03.741Z,17.83
2017-11-18T11:12:32.641Z,26.30
2017-11-18T11:15:01.536Z,28.67
2017-11-18T11:17:30.425Z,23.30
2017-11-18T11:19:59.491Z,28.00
2017-11-18T11:22:28.371Z,20.63
2017-11-18T11:24:57.396Z,26.03
2017-11-18T11:27:26.268Z,23.63
2017-11-18T11:29:55.227Z,24.00
2017-11-18T11:32:24.532Z,22.53
2017-11-18T11:34:53.652Z,22.67
2017-11-18T11:37:22.592Z,16.93
2017-11-18T11:39:51.472Z,16.47
2017-11-18T11:42:20.363Z,20.23
2017-11-18T11:44:49.887Z,18.77
2017-11-18T11:47:18.754Z,19.57
2017-11-18T11:49:48.695Z,18.83
2017-11-18T11:52:17.560Z,19.43
2017-11-18T11:54:46.662Z,21.00
2017-11-18T11:57:15.542Z,14.80
2017-11-18T11:59:44.421Z,16.60
2017-11-18T12:02:13.295Z,18.93
2017-11-18T12:04:42.429Z,22.23
2017-11-18T12:07:11.310Z,22.27
2017-11-18T12:09:40.180Z,23.13
2017-11-18T12:12:09.066Z,22.23
2017-11-18T12:14:37.964Z,18.73
2017-11-18T12:17:06.919Z,22.57
2017-11-18T12:19:35.794Z,17.73
2017-11-18T12:22:04.664Z,15.77
2017-11-18T12:24:33.541Z,15.83
2017-11-18T12:27:02.402Z,18.90
2017-11-18T12:29:31.271Z,21.60
2017-11-18T12:32:00.126Z,18.20
2017-11-18T12:34:29.029Z,21.20
2017-11-18T12:36:57.888Z,16.77
2017-11-18T12:39:26.771Z,17.27
2017-11-18T12:41:55.668Z,16.40
2017-11-18T12:44:24.568Z,13.83
2017-11-18T12:46:53.436Z,13.50
2017-11-18T12:49:22.297Z,18.87
2017-11-18T12:51:51.164Z,15.23
2017-11-18T12:54:20.074Z,18.77
2017-11-18T12:56:48.965Z,16.40
2017-11-18T12:59:17.888Z,17.50
2017-11-18T13:01:46.854Z,15.63
2017-11-18T13:04:15.805Z,15.53
2017-11-18T13:06:44.703Z,16.60
2017-11-18T13:09:13.584Z,22.17
2017-11-18T13:11:42.478Z,21.50
2017-11-18T13:14:11.477Z,21.53
2017-11-18T13:16:40.363Z,27.07
2017-11-18T13:19:09.264Z,22.27
2017-11-18T13:21:38.207Z,19.57
2017-11-18T13:24:07.106Z,23.03
2017-11-18T13:26:36.186Z,22.90
2017-11-18T13:29:05.112Z,23.90
2017-11-18T13:31:34.033Z,26.10
2017-11-18T13:34:03.014Z,21.60
2017-11-18T13:36:31.870Z,27.80
2017-11-18T13:39:00.855Z,26.33
2017-11-18T13:41:29.757Z,21.80
2017-11-18T13:43:58.780Z,24.77
2017-11-18T13:46:27.660Z,27.43
2017-11-18T13:48:56.660Z,25.70
2017-11-18T13:51:26.523Z,29.13
2017-11-18T13:53:55.432Z,26.47
2017-11-18T13:56:24.319Z,28.03
2017-11-18T13:58:53.207Z,26.23
2017-11-18T14:01:22.107Z,24.60
2017-11-18T14:03:50.971Z,27.57
2017-11-18T14:06:20.005Z,24.10
2017-11-18T14:08:48.908Z,23.60
2017-11-18T14:11:17.834Z,27.13
2017-11-18T14:13:46.799Z,30.07
2017-11-18T14:16:15.687Z,20.07
2017-11-18T14:18:44.603Z,27.70
2017-11-18T14:21:13.525Z,30.37
2017-11-18T14:23:42.407Z,25.83
2017-11-18T14:26:11.259Z,24.27
2017-11-18T14:28:40.136Z,23.63
2017-11-18T14:31:09.347Z,23.73
2017-11-18T14:33:38.270Z,25.30
2017-11-18T14:36:07.147Z,33.57
2017-11-18T14:38:36.316Z,26.70
2017-11-18T14:41:05.197Z,25.87
2017-11-18T14:43:34.064Z,21.20
2017-11-18T14:46:02.937Z,29.80
2017-11-18T14:48:31.813Z,21.10
2017-11-18T14:51:00.695Z,21.00
2017-11-18T14:53:29.646Z,18.73
2017-11-18T14:55:58.524Z,24.07
2017-11-18T14:58:27.416Z,17.57
2017-11-18T15:00:56.320Z,22.60
2017-11-18T15:03:25.299Z,23.53
2017-11-18T15:05:54.269Z,23.27
2017-11-18T15:08:23.167Z,20.00
2017-11-18T15:10:52.075Z,18.97
2017-11-18T15:13:20.972Z,22.23
2017-11-18T15:15:55.078Z,19.30
2017-11-18T15:18:29.685Z,19.03
2017-11-18T15:21:04.529Z,18.57
2017-11-18T15:23:39.217Z,21.97
2017-11-18T15:26:13.997Z,21.07
2017-11-18T15:28:48.518Z,17.07
2017-11-18T15:31:19.323Z,20.57
2017-11-18T15:33:50.909Z,17.97
2017-11-18T15:36:24.704Z,16.70
2017-11-18T15:38:55.155Z,19.43
2017-11-18T15:41:24.030Z,13.77
2017-11-18T15:44:06.765Z,19.00
2017-11-18T15:46:35.694Z,20.73
2017-11-18T15:49:10.374Z,21.50
2017-11-18T15:51:41.075Z,17.90
2017-11-18T15:54:15.710Z,18.63
2017-11-18T15:56:45.514Z,14.70
2017-11-18T15:59:16.905Z,18.93
2017-11-18T16:01:48.551Z,15.43
2017-11-18T16:04:18.312Z,18.57
2017-11-18T16:07:07.914Z,12.53
2017-11-18T16:09:36.825Z,17.50
2017-11-18T16:12:05.700Z,16.30
2017-11-18T16:14:34.578Z,19.03
2017-11-18T16:17:03.442Z,17.60
2017-11-18T16:19:32.382Z,18.77
2017-11-18T16:22:01.253Z,15.67
2017-11-18T16:24:30.143Z,17.97
2017-11-18T16:26:59.009Z,18.43
2017-11-18T16:29:27.895Z,14.77
2017-11-18T16:31:56.815Z,14.80
2017-11-18T16:34:25.681Z,15.93
2017-11-18T16:36:54.571Z,14.50
2017-11-18T16:39:23.438Z,15.03
2017-11-18T16:41:52.457Z,17.40
2017-11-18T16:44:21.338Z,12.97
2017-11-18T16:46:50.215Z,12.13
2017-11-18T16:49:19.120Z,14.77
2017-11-18T16:51:48.017Z,11.03
2017-11-18T16:54:16.906Z,16.07
2017-11-18T16:56:45.777Z,12.83
2017-11-18T16:59:14.762Z,10.90
2017-11-18T17:01:43.688Z,13.00
2017-11-18T17:04:12.576Z,15.10
2017-11-18T17:06:41.452Z,14.30
2017-11-18T17:09:10.309Z,13.93
2017-11-18T17:11:39.242Z,15.63
2017-11-18T17:14:08.126Z,15.17
2017-11-18T17:16:37.005Z,16.00
2017-11-18T17:19:05.902Z,19.97
2017-11-18T17:21:35.265Z,15.30
2017-11-18T17:24:04.141Z,16.03
2017-11-18T17:26:33.070Z,17.70
2017-11-18T17:29:01.982Z,18.57
2017-11-18T17:31:30.872Z,18.33
2017-11-18T17:33:59.736Z,20.87
2017-11-18T17:36:28.638Z,19.63
2017-11-18T17:38:57.537Z,21.73
2017-11-18T17:41:26.408Z,18.97
2017-11-18T17:43:55.309Z,17.30
2017-11-18T17:46:24.170Z,18.83
2017-11-18T17:48:53.035Z,28.90
2017-11-18T17:51:21.900Z,19.33
2017-11-18T17:53:50.785Z,21.93
2017-11-18T17:56:19.651Z,17.97
2017-11-18T17:58:48.552Z,24.37
2017-11-18T18:01:17.478Z,20.40
2017-11-18T18:03:46.368Z,24.17
2017-11-18T18:06:15.275Z,19.60
2017-11-18T18:08:44.176Z,18.93
2017-11-18T18:11:13.068Z,21.17
2017-11-18T18:13:41.960Z,22.27
2017-11-18T18:16:10.843Z,20.40
2017-11-18T18:18:39.706Z,16.50
2017-11-18T18:21:08.635Z,19.03
2017-11-18T18:23:37.578Z,14.87
2017-11-18T18:26:06.448Z,12.97
2017-11-18T18:28:35.332Z,12.90
2017-11-18T18:31:04.194Z,11.70
2017-11-18T18:33:33.241Z,19.03
2017-11-18T18:36:02.108Z,12.30
2017-11-18T18:38:30.997Z,11.10
2017-11-18T18:40:59.873Z,11.80
2017-11-18T18:43:28.731Z,12.67
2017-11-18T18:45:57.609Z,12.93
2017-11-18T18:48:26.473Z,11.17
2017-11-18T18:50:55.369Z,18.07
2017-11-18T18:53:24.225Z,11.43
2017-11-18T18:55:53.242Z,14.10
2017-11-18T18:58:22.097Z,11.80
2017-11-18T19:00:50.956Z,14.10
2017-11-18T19:03:19.873Z,12.93
2017-11-18T19:05:48.743Z,13.50
2017-11-18T19:08:17.661Z,11.37
2017-11-18T19:10:46.523Z,12.63
2017-11-18T19:13:15.425Z,11.10
2017-11-18T19:15:44.310Z,13.30
2017-11-18T19:18:13.210Z,13.30
2017-11-18T19:20:42.084Z,14.37
2017-11-18T19:23:10.996Z,14.03
2017-11-18T19:25:39.890Z,16.57
2017-11-18T19:28:08.760Z,13.70
2017-11-18T19:30:37.645Z,13.43
2017-11-18T19:33:06.496Z,13.00
2017-11-18T19:35:35.376Z,13.50
2017-11-18T19:38:04.228Z,12.43
2017-11-18T19:40:33.116Z,15.17
2017-11-18T19:43:01.971Z,16.60
2017-11-18T19:45:30.870Z,14.83
2017-11-18T19:47:59.745Z,16.90
2017-11-18T19:50:28.633Z,14.90
2017-11-18T19:52:57.512Z,14.13
2017-11-18T19:55:26.376Z,19.43
2017-11-18T19:57:55.463Z,19.53
2017-11-18T20:00:24.320Z,14.17
2017-11-18T20:02:53.179Z,20.83
2017-11-18T20:05:22.070Z,13.63
2017-11-18T20:07:50.949Z,19.10
2017-11-18T20:10:19.824Z,20.23
2017-11-18T20:12:48.708Z,17.50
2017-11-18T20:15:17.588Z,19.10
2017-11-18T20:17:46.451Z,22.13
2017-11-18T20:20:15.332Z,19.27
2017-11-18T20:22:44.353Z,19.90
2017-11-18T20:25:13.237Z,20.27
2017-11-18T20:27:42.096Z,30.70
2017-11-18T20:30:10.994Z,23.27
2017-11-18T20:32:39.863Z,22.13
2017-11-18T20:35:08.742Z,21.13
2017-11-18T20:37:37.600Z,25.33
2017-11-18T20:40:06.467Z,24.00
2017-11-18T20:42:35.319Z,23.20
2017-11-18T20:45:04.196Z,23.13
2017-11-18T20:47:33.075Z,23.83
2017-11-18T20:50:01.955Z,27.30
2017-11-18T20:52:30.819Z,23.20
2017-11-18T20:54:59.691Z,22.63
2017-11-18T20:57:28.566Z,25.27
2017-11-18T20:59:57.480Z,22.47
2017-11-18T21:02:26.345Z,21.80
2017-11-18T21:04:55.199Z,26.83
2017-11-18T21:07:24.073Z,23.27
2017-11-18T21:09:52.931Z,22.77
2017-11-18T21:12:21.831Z,23.60
2017-11-18T21:14:50.728Z,21.13
2017-11-18T21:17:19.690Z,19.33
2017-11-18T21:19:48.565Z,22.50
2017-11-18T21:22:17.458Z,18.23
2017-11-18T21:24:46.328Z,21.13
2017-11-18T21:27:15.215Z,19.90
2017-11-18T21:29:44.128Z,25.30
2017-11-18T21:32:12.995Z,21.37
2017-11-18T21:34:41.882Z,20.80
2017-11-18T21:37:10.755Z,22.10
2017-11-18T21:39:39.640Z,15.97
2017-11-18T21:42:08.549Z,21.27
2017-11-18T21:44:37.416Z,19.27
2017-11-18T21:47:06.291Z,18.60
2017-11-18T21:49:35.142Z,18.80
2017-11-18T21:52:04.025Z,19.10
2017-11-18T21:54:32.900Z,17.60
2017-11-18T21:57:01.787Z,19.23
2017-11-18T21:59:30.644Z,18.83
2017-11-18T22:01:59.517Z,18.10
2017-11-18T22:04:28.376Z,17.33
2017-11-18T22:06:57.259Z,18.40
2017-11-18T22:09:26.130Z,21.17
2017-11-18T22:11:55.013Z,16.70
2017-11-18T22:14:23.904Z,17.97
2017-11-18T22:16:53.224Z,15.47
2017-11-18T22:19:22.130Z,20.97
2017-11-18T22:21:51.019Z,19.87
2017-11-18T22:24:20.445Z,21.60
2017-11-18T22:26:49.295Z,21.20
2017-11-18T22:29:18.165Z,19.90
2017-11-18T22:31:47.151Z,19.10
2017-11-18T22:34:16.055Z,20.93
2017-11-18T22:36:44.920Z,16.33
2017-11-18T22:39:13.821Z,13.43
2017-11-18T22:41:42.765Z,17.77
2017-11-18T22:44:11.650Z,15.30
2017-11-18T22:46:40.540Z,14.87
2017-11-18T22:49:09.412Z,17.80
2017-11-18T22:51:38.280Z,15.13
2017-11-18T22:54:07.144Z,16.00
2017-11-18T22:56:36.050Z,15.27
2017-11-18T22:59:04.904Z,12.90
2017-11-18T23:01:33.776Z,11.33
2017-11-18T23:04:02.659Z,14.67
2017-11-18T23:06:31.506Z,15.60
2017-11-18T23:09:00.452Z,15.63
2017-11-18T23:11:29.316Z,12.47
2017-11-18T23:13:58.221Z,13.43
2017-11-18T23:16:27.095Z,18.70
2017-11-18T23:18:55.954Z,13.20
2017-11-18T23:21:24.832Z,16.50
2017-11-18T23:23:53.707Z,15.40
2017-11-18T23:26:22.620Z,14.40
2017-11-18T23:28:51.500Z,14.60
2017-11-18T23:31:20.400Z,26.90
2017-11-18T23:33:49.278Z,14.87
2017-11-18T23:36:18.146Z,17.57
2017-11-18T23:38:47.027Z,15.90
2017-11-18T23:41:15.897Z,16.20
2017-11-18T23:43:44.790Z,14.57
2017-11-18T23:46:13.648Z,14.20
2017-11-18T23:48:42.540Z,18.90
2017-11-18T23:51:11.389Z,15.90
2017-11-18T23:53:40.298Z,15.03
2017-11-18T23:56:09.159Z,17.20
2017-11-18T23:58:38.230Z,13.00
